Time;durP1;ratioP1;P1;durP2;ratioP2;P2;SDS_P1;SDS_P2;PMS_P1;PMS_P2;Temp;Humidity;BMP_temperature;BMP_pressure;BME280_temperature;BME280_humidity;BME280_pressure;Samples;Min_cycle;Max_cycle;Signal;HPM_P1;HPM_P2
2021/10/25 00:01:49;;;;;;;17.42;11.30;;;6.00;99.90;;;;;;5116023;28;20430;-70
2021/10/25 00:04:14;;;;;;;16.35;12.35;;;6.00;99.90;;;;;;5116165;28;20082;-70
2021/10/25 00:06:40;;;;;;;21.00;13.35;;;6.00;99.90;;;;;;5116037;28;20043;-70
2021/10/25 00:09:05;;;;;;;17.65;12.27;;;6.00;99.90;;;;;;5115638;28;20441;-70
2021/10/25 00:11:32;;;;;;;18.00;13.10;;;6.00;99.90;;;;;;5114474;28;20475;-70
2021/10/25 00:13:57;;;;;;;17.50;12.75;;;6.10;99.90;;;;;;5114957;28;20540;-70
2021/10/25 00:16:23;;;;;;;23.83;14.85;;;6.10;99.90;;;;;;5114955;28;20043;-70
2021/10/25 00:18:48;;;;;;;19.40;12.77;;;6.10;99.90;;;;;;5115221;28;20043;-70
2021/10/25 00:21:14;;;;;;;16.80;13.02;;;6.10;99.90;;;;;;5115959;28;20040;-70
2021/10/25 00:23:39;;;;;;;18.92;13.15;;;6.10;99.90;;;;;;5115630;28;20039;-69
2021/10/25 00:26:05;;;;;;;17.35;12.63;;;6.10;99.90;;;;;;5115517;28;20063;-70
2021/10/25 00:28:31;;;;;;;18.83;13.73;;;6.10;99.90;;;;;;5115051;28;20534;-70
2021/10/25 00:30:56;;;;;;;19.38;12.82;;;6.20;99.90;;;;;;5114798;28;20035;-70
2021/10/25 00:33:22;;;;;;;15.90;11.90;;;6.20;99.90;;;;;;5113689;28;20437;-70
2021/10/25 00:35:47;;;;;;;18.00;12.65;;;6.20;99.90;;;;;;5113838;28;20093;-70
2021/10/25 00:38:15;;;;;;;18.80;12.95;;;6.20;99.90;;;;;;5115033;28;20035;-70
2021/10/25 00:40:42;;;;;;;21.25;13.85;;;6.20;99.90;;;;;;5114710;28;20460;-70
2021/10/25 00:43:07;;;;;;;19.48;13.75;;;6.20;99.90;;;;;;5114976;28;20048;-70
2021/10/25 00:45:33;;;;;;;23.70;14.23;;;6.20;99.90;;;;;;5114969;28;20038;-70
2021/10/25 00:47:58;;;;;;;20.67;14.57;;;6.10;99.90;;;;;;5113744;28;20050;-70
2021/10/25 00:50:24;;;;;;;20.25;13.93;;;6.10;99.90;;;;;;5113936;28;20042;-70
2021/10/25 00:52:51;;;;;;;19.55;13.38;;;6.10;99.90;;;;;;5113877;28;20073;-69
2021/10/25 00:55:17;;;;;;;19.10;12.77;;;6.10;99.90;;;;;;5115144;28;20476;-70
2021/10/25 00:57:43;;;;;;;18.70;13.38;;;6.00;99.90;;;;;;5115005;28;20043;-70
2021/10/25 01:00:11;;;;;;;20.48;13.75;;;6.10;99.90;;;;;;5114379;28;20040;-70
2021/10/25 01:02:37;;;;;;;20.55;13.13;;;6.00;99.90;;;;;;5114649;28;20468;-70
2021/10/25 01:05:04;;;;;;;19.63;13.60;;;6.00;99.90;;;;;;5114715;28;20031;-70
2021/10/25 01:07:30;;;;;;;16.60;12.27;;;6.00;99.90;;;;;;5113635;28;20050;-70
2021/10/25 01:09:57;;;;;;;23.88;15.15;;;5.90;99.90;;;;;;5114322;28;20031;-70
2021/10/25 01:12:23;;;;;;;19.27;14.52;;;5.90;99.90;;;;;;5114502;28;20429;-70
2021/10/25 01:14:49;;;;;;;21.05;13.45;;;5.90;99.90;;;;;;5114795;28;20096;-70
2021/10/25 01:17:15;;;;;;;18.88;13.90;;;5.90;99.90;;;;;;5114562;28;20040;-70
2021/10/25 01:19:41;;;;;;;19.42;14.48;;;5.90;99.90;;;;;;5114411;28;20467;-70
2021/10/25 01:22:06;;;;;;;19.73;13.93;;;6.00;99.90;;;;;;5114503;28;20073;-70
2021/10/25 01:24:32;;;;;;;26.35;15.48;;;6.00;99.90;;;;;;5114831;28;20473;-70
2021/10/25 01:26:58;;;;;;;19.95;13.48;;;5.90;99.90;;;;;;5114438;28;20044;-70
2021/10/25 01:29:24;;;;;;;19.20;13.73;;;5.90;99.90;;;;;;5114257;28;20472;-70
2021/10/25 01:31:50;;;;;;;22.23;14.10;;;5.90;99.90;;;;;;5113129;28;20051;-70
2021/10/25 01:34:16;;;;;;;19.08;14.07;;;6.00;99.90;;;;;;5113079;28;20047;-69
2021/10/25 01:36:42;;;;;;;20.38;13.63;;;5.90;99.90;;;;;;5114094;28;20036;-70
2021/10/25 01:39:08;;;;;;;20.33;14.20;;;5.90;99.90;;;;;;5113759;28;20032;-70
2021/10/25 01:41:35;;;;;;;21.98;14.52;;;5.90;99.90;;;;;;5113916;28;20157;-69
2021/10/25 01:44:01;;;;;;;21.95;14.07;;;5.90;99.90;;;;;;5113394;28;20493;-70
2021/10/25 01:46:26;;;;;;;20.05;14.20;;;5.90;99.90;;;;;;5114082;28;20119;-70
2021/10/25 01:48:52;;;;;;;20.75;13.45;;;5.80;99.90;;;;;;5113591;28;20036;-70
2021/10/25 01:51:18;;;;;;;21.80;14.20;;;5.80;99.90;;;;;;5113476;28;20043;-70
2021/10/25 01:53:45;;;;;;;20.77;14.43;;;5.80;99.90;;;;;;5114231;28;20044;-70
2021/10/25 01:56:11;;;;;;;19.70;14.18;;;5.80;99.90;;;;;;5113800;28;20044;-70
2021/10/25 01:58:38;;;;;;;25.17;15.35;;;5.80;99.90;;;;;;5113713;28;20034;-70
2021/10/25 02:01:05;;;;;;;19.10;14.18;;;5.80;99.90;;;;;;5113705;28;20391;-70
2021/10/25 02:03:33;;;;;;;20.30;15.30;;;5.80;99.90;;;;;;5114312;28;20047;-70
2021/10/25 02:05:59;;;;;;;21.77;13.90;;;5.80;99.90;;;;;;5114517;28;20039;-70
2021/10/25 02:08:25;;;;;;;20.25;14.75;;;5.80;99.90;;;;;;5112708;28;20046;-70
2021/10/25 02:10:51;;;;;;;21.67;15.20;;;5.80;99.90;;;;;;5113387;28;20035;-70
2021/10/25 02:13:17;;;;;;;23.73;16.77;;;5.80;99.90;;;;;;5113776;28;20084;-70
2021/10/25 02:15:45;;;;;;;23.80;15.85;;;5.90;99.90;;;;;;5113824;28;20456;-70
2021/10/25 02:18:13;;;;;;;24.85;15.73;;;5.90;99.90;;;;;;5112441;28;20084;-70
2021/10/25 02:20:40;;;;;;;23.23;15.88;;;5.90;99.90;;;;;;5113778;28;20161;-70
2021/10/25 02:23:07;;;;;;;23.67;16.83;;;5.90;99.90;;;;;;5113734;28;20036;-70
2021/10/25 02:25:33;;;;;;;23.08;16.63;;;6.00;99.90;;;;;;5112271;28;20493;-70
2021/10/25 02:27:59;;;;;;;26.25;16.58;;;6.00;99.90;;;;;;5113744;28;20372;-70
2021/10/25 02:30:25;;;;;;;22.73;15.63;;;6.00;99.90;;;;;;5113092;28;20036;-70
2021/10/25 02:32:51;;;;;;;24.55;16.85;;;6.00;99.90;;;;;;5112422;28;20043;-70
2021/10/25 02:35:16;;;;;;;23.08;15.43;;;6.00;99.90;;;;;;5113448;28;20107;-70
2021/10/25 02:37:42;;;;;;;22.38;15.48;;;6.00;99.90;;;;;;5113395;28;20039;-70
2021/10/25 02:40:08;;;;;;;21.25;14.77;;;6.00;99.90;;;;;;5111935;28;20046;-70
2021/10/25 02:42:34;;;;;;;21.73;15.55;;;6.00;99.90;;;;;;5112045;28;20047;-70
2021/10/25 02:45:00;;;;;;;25.23;15.18;;;6.00;99.90;;;;;;5112166;28;20043;-70
2021/10/25 02:47:25;;;;;;;20.15;14.52;;;6.00;99.90;;;;;;5111997;28;20039;-70
2021/10/25 02:49:51;;;;;;;23.40;14.90;;;6.10;99.90;;;;;;5112709;28;20395;-70
2021/10/25 02:52:16;;;;;;;24.48;14.82;;;6.10;99.90;;;;;;5113038;28;20043;-70
2021/10/25 02:54:42;;;;;;;24.48;15.68;;;6.10;99.90;;;;;;5113875;28;20047;-70
2021/10/25 02:57:07;;;;;;;22.77;15.70;;;6.00;99.90;;;;;;5115937;28;20047;-70
2021/10/25 02:59:33;;;;;;;19.52;14.75;;;6.00;99.90;;;;;;5117022;28;20036;-70
2021/10/25 03:01:59;;;;;;;23.00;16.00;;;6.00;99.90;;;;;;5115961;28;20134;-69
2021/10/25 03:04:24;;;;;;;20.05;14.85;;;6.00;99.90;;;;;;5117151;28;20376;-70
2021/10/25 03:06:50;;;;;;;20.83;15.07;;;6.00;99.90;;;;;;5116445;28;20037;-70
2021/10/25 03:09:15;;;;;;;22.67;14.85;;;6.00;99.90;;;;;;5117108;28;20531;-70
2021/10/25 03:11:41;;;;;;;24.85;15.93;;;6.00;99.90;;;;;;5117246;28;20042;-70
2021/10/25 03:14:06;;;;;;;26.02;15.85;;;6.00;99.90;;;;;;5117251;28;20039;-70
2021/10/25 03:16:32;;;;;;;21.60;15.13;;;6.00;99.90;;;;;;5098846;28;20413;-70
2021/10/25 03:18:58;;;;;;;19.00;14.70;;;6.00;99.90;;;;;;5116482;28;20031;-70
2021/10/25 03:21:23;;;;;;;19.52;15.13;;;6.00;99.90;;;;;;5116744;28;20103;-70
2021/10/25 03:23:50;;;;;;;24.52;16.73;;;6.00;99.90;;;;;;5117120;28;20522;-70
2021/10/25 03:26:16;;;;;;;21.13;14.75;;;6.00;99.90;;;;;;5116881;28;20036;-70
2021/10/25 03:28:42;;;;;;;20.98;15.38;;;6.00;99.90;;;;;;5116670;28;20035;-70
2021/10/25 03:31:09;;;;;;;20.60;15.90;;;6.00;99.90;;;;;;5116846;28;20088;-70
2021/10/25 03:33:36;;;;;;;23.45;15.75;;;6.00;99.90;;;;;;5116358;28;20555;-70
2021/10/25 03:36:04;;;;;;;24.00;15.43;;;6.00;99.90;;;;;;5115211;28;20039;-70
2021/10/25 03:38:31;;;;;;;21.50;14.48;;;6.00;99.90;;;;;;5115993;28;20042;-70
2021/10/25 03:40:57;;;;;;;26.30;16.40;;;6.00;99.90;;;;;;5116438;28;20418;-70
2021/10/25 03:43:27;;;;;;;21.85;16.13;;;6.00;99.90;;;;;;5116526;28;20047;-70
2021/10/25 03:46:01;;;;;;;22.42;15.95;;;6.00;99.90;;;;;;5116437;27;20046;-70
2021/10/25 03:48:33;;;;;;;21.88;15.35;;;6.00;99.90;;;;;;5116596;28;20139;-72
2021/10/25 03:50:58;;;;;;;23.17;15.93;;;6.00;99.90;;;;;;5115223;28;20054;-70
2021/10/25 03:53:36;;;;;;;19.95;15.77;;;6.00;99.90;;;;;;5116299;28;20423;-69
2021/10/25 04:28:13;;;;;;;24.45;16.27;;;6.00;99.90;;;;;;5115503;28;20548;-70
2021/10/25 04:30:39;;;;;;;26.00;16.58;;;6.00;99.90;;;;;;5096915;28;20067;-70
2021/10/25 04:33:06;;;;;;;23.25;16.08;;;6.00;99.90;;;;;;5115593;28;20035;-70
2021/10/25 04:35:33;;;;;;;22.05;16.52;;;6.00;99.90;;;;;;5115413;28;20047;-70
2021/10/25 04:37:58;;;;;;;25.58;17.40;;;6.10;99.90;;;;;;5115329;28;20114;-70
2021/10/25 04:40:25;;;;;;;24.98;17.10;;;6.10;99.90;;;;;;5115462;28;20114;-70
2021/10/25 04:42:52;;;;;;;25.33;16.00;;;6.10;99.90;;;;;;5115201;28;20035;-70
2021/10/25 04:45:19;;;;;;;23.23;16.80;;;6.20;99.90;;;;;;5115273;28;20040;-70
2021/10/25 04:47:45;;;;;;;24.42;17.20;;;6.20;99.90;;;;;;5115350;27;20038;-70
2021/10/25 04:50:11;;;;;;;23.63;15.60;;;6.20;99.90;;;;;;5113450;28;20127;-69
2021/10/25 04:52:37;;;;;;;26.60;18.38;;;6.20;99.90;;;;;;5114938;28;20043;-70
2021/10/25 04:55:05;;;;;;;27.33;17.13;;;6.20;99.90;;;;;;5114806;28;20476;-69
2021/10/25 04:57:30;;;;;;;24.90;16.33;;;6.30;99.90;;;;;;5096970;28;20086;-69
2021/10/25 04:59:56;;;;;;;24.58;16.67;;;6.30;99.90;;;;;;5113430;28;20075;-70
2021/10/25 05:02:22;;;;;;;22.52;16.25;;;6.30;99.90;;;;;;5113632;28;20039;-69
2021/10/25 05:04:47;;;;;;;23.90;17.52;;;6.40;99.90;;;;;;5113512;28;20516;-70
2021/10/25 05:07:13;;;;;;;23.90;16.25;;;6.40;99.90;;;;;;5113264;28;20082;-70
2021/10/25 05:09:39;;;;;;;24.80;17.85;;;6.50;99.90;;;;;;5095812;28;20050;-70
2021/10/25 05:12:05;;;;;;;24.40;18.10;;;6.50;99.90;;;;;;5113453;28;20083;-69
2021/10/25 05:14:30;;;;;;;27.73;18.25;;;6.50;99.90;;;;;;5114791;28;20384;-70
2021/10/25 05:16:56;;;;;;;23.35;16.33;;;6.50;99.90;;;;;;5114392;28;20047;-70
2021/10/25 05:19:21;;;;;;;23.42;16.08;;;6.60;99.90;;;;;;5113821;28;20400;-69
2021/10/25 05:21:47;;;;;;;22.45;15.93;;;6.60;99.90;;;;;;5114184;28;20031;-69
2021/10/25 05:24:13;;;;;;;22.30;16.05;;;6.60;99.90;;;;;;5114386;28;20391;-68
2021/10/25 05:26:39;;;;;;;23.23;16.92;;;6.70;99.90;;;;;;5113366;28;20054;-69
2021/10/25 05:29:04;;;;;;;27.58;17.80;;;6.70;99.90;;;;;;5113844;28;20039;-69
2021/10/25 05:31:30;;;;;;;24.63;17.80;;;6.70;99.90;;;;;;5114355;28;20156;-69
2021/10/25 05:33:57;;;;;;;21.85;16.92;;;6.80;99.90;;;;;;5112925;28;20036;-69
2021/10/25 05:36:23;;;;;;;25.05;18.00;;;6.80;99.90;;;;;;5113975;28;20031;-69
2021/10/25 05:38:49;;;;;;;27.27;18.45;;;6.90;99.90;;;;;;5112967;28;20457;-69
2021/10/25 05:41:15;;;;;;;25.83;16.73;;;6.90;99.90;;;;;;5113191;28;20046;-68
2021/10/25 05:43:41;;;;;;;24.05;16.08;;;6.90;99.90;;;;;;5114078;28;20043;-69
2021/10/25 05:46:07;;;;;;;23.35;16.30;;;7.00;99.90;;;;;;5112743;28;20089;-69
2021/10/25 05:48:33;;;;;;;26.45;16.92;;;7.00;99.90;;;;;;5112341;28;20533;-69
2021/10/25 05:51:02;;;;;;;23.35;15.73;;;7.00;99.90;;;;;;5114271;28;20051;-69
2021/10/25 05:53:28;;;;;;;22.75;15.63;;;7.10;99.90;;;;;;5114156;28;20048;-69
2021/10/25 05:55:54;;;;;;;22.85;15.52;;;7.10;99.90;;;;;;5112752;28;20051;-69
2021/10/25 05:58:23;;;;;;;29.27;16.75;;;7.10;99.90;;;;;;5113957;28;20063;-69
2021/10/25 06:00:55;;;;;;;22.02;15.38;;;7.20;99.90;;;;;;5113648;28;20050;-68
2021/10/25 06:03:26;;;;;;;21.20;15.85;;;7.20;99.90;;;;;;5113949;28;20093;-69
2021/10/25 06:05:52;;;;;;;24.25;16.20;;;7.20;99.90;;;;;;5113770;28;20039;-69
2021/10/25 06:08:18;;;;;;;24.15;15.52;;;7.20;99.90;;;;;;5113662;28;20100;-69
2021/10/25 06:10:44;;;;;;;23.15;15.65;;;7.30;99.90;;;;;;5111925;28;20050;-69
2021/10/25 06:13:19;;;;;;;22.77;15.35;;;7.30;99.90;;;;;;5113606;28;20219;-69
2021/10/25 06:15:44;;;;;;;23.30;15.65;;;7.30;99.90;;;;;;5113951;28;20051;-69
2021/10/25 06:18:10;;;;;;;23.75;15.68;;;7.30;99.90;;;;;;5113481;28;20044;-69
2021/10/25 06:20:39;;;;;;;23.15;17.02;;;7.30;99.90;;;;;;5113532;28;20043;-69
2021/10/25 06:23:13;;;;;;;25.58;15.65;;;7.40;99.90;;;;;;5114394;28;20047;-69
2021/10/25 06:25:40;;;;;;;26.08;17.33;;;7.40;99.90;;;;;;5113936;28;20103;-69
2021/10/25 06:28:06;;;;;;;23.65;17.40;;;7.40;99.90;;;;;;5112369;28;20044;-69
2021/10/25 06:30:33;;;;;;;26.13;17.65;;;7.40;99.90;;;;;;5114713;28;20070;-69
2021/10/25 06:33:02;;;;;;;24.58;18.30;;;7.40;99.90;;;;;;5117753;28;20051;-69
2021/10/25 06:35:27;;;;;;;24.67;16.83;;;7.50;99.90;;;;;;5117589;28;20555;-69
2021/10/25 06:40:20;;;;;;;24.08;16.67;;;7.50;99.90;;;;;;5116494;28;20056;-69
2021/10/25 06:42:51;;;;;;;23.55;16.73;;;7.50;99.90;;;;;;5117710;28;20043;-69
2021/10/25 06:45:20;;;;;;;22.48;17.10;;;7.50;99.90;;;;;;5117593;27;20082;-69
2021/10/25 06:47:47;;;;;;;31.70;18.55;;;7.50;99.90;;;;;;5117668;28;20043;-68
2021/10/25 06:50:14;;;;;;;23.60;16.08;;;7.60;99.90;;;;;;5117079;28;20456;-69
2021/10/25 06:52:39;;;;;;;24.52;16.70;;;7.60;99.90;;;;;;5117432;28;20499;-69
2021/10/25 06:55:06;;;;;;;25.40;15.93;;;7.60;99.90;;;;;;5117538;28;20165;-69
2021/10/25 06:57:33;;;;;;;25.08;17.90;;;7.70;99.90;;;;;;5117317;28;20043;-69
2021/10/25 07:00:00;;;;;;;26.35;16.45;;;7.70;99.90;;;;;;5116976;28;20035;-68
2021/10/25 07:02:26;;;;;;;25.63;18.85;;;7.70;99.90;;;;;;5116970;28;20114;-69
2021/10/25 07:04:52;;;;;;;28.27;17.88;;;7.70;99.90;;;;;;5117065;28;20515;-69
2021/10/25 07:07:19;;;;;;;22.25;16.40;;;7.70;99.90;;;;;;5117305;28;20070;-69
2021/10/25 07:09:45;;;;;;;31.20;17.75;;;7.80;99.90;;;;;;5113964;28;20044;-69
2021/10/25 07:12:11;;;;;;;25.83;17.90;;;7.80;99.90;;;;;;5095185;28;20488;-69
2021/10/25 07:14:38;;;;;;;26.13;17.20;;;7.80;99.90;;;;;;5097156;28;20043;-68
2021/10/25 07:19:54;;;;;;;28.02;18.58;;;7.90;99.90;;;;;;5096473;28;20051;-67
2021/10/25 07:22:50;;;;;;;24.33;17.48;;;7.90;99.90;;;;;;5096567;28;20058;-68
2021/10/25 07:28:12;;;;;;;20.65;16.13;;;8.00;99.90;;;;;;5096518;28;20036;-67
2021/10/25 08:06:58;;;;;;;27.48;17.98;;;8.30;99.90;;;;;;5053259;28;20041;-68
2021/10/25 08:12:16;;;;;;;27.50;17.77;;;8.40;99.90;;;;;;5095678;28;20043;-67
2021/10/25 08:15:02;;;;;;;28.98;19.60;;;8.40;99.90;;;;;;5115973;28;20097;-67
2021/10/25 08:20:12;;;;;;;24.65;17.67;;;8.50;99.90;;;;;;5115339;28;20114;-68
2021/10/25 08:22:38;;;;;;;31.30;20.70;;;8.50;99.90;;;;;;5114143;28;20551;-68
2021/10/25 08:25:05;;;;;;;27.35;18.50;;;8.50;99.90;;;;;;5114300;28;20123;-68
2021/10/25 08:27:31;;;;;;;28.70;19.92;;;8.60;99.90;;;;;;5115344;28;20036;-67
2021/10/25 08:29:56;;;;;;;25.48;18.27;;;8.60;99.90;;;;;;5115317;28;20050;-67
2021/10/25 08:40:24;;;;;;;29.17;18.67;;;8.70;99.90;;;;;;5113819;28;20048;-68
2021/10/25 08:42:49;;;;;;;23.58;18.33;;;8.80;99.90;;;;;;5115265;28;20066;-68
2021/10/25 08:45:26;;;;;;;28.48;19.90;;;8.80;99.90;;;;;;5115122;28;20043;-68
2021/10/25 08:47:53;;;;;;;30.05;21.00;;;8.80;99.90;;;;;;5115639;28;20036;-68
2021/10/25 08:50:24;;;;;;;27.73;18.40;;;8.90;99.90;;;;;;5114809;28;20053;-68
2021/10/25 08:52:51;;;;;;;25.83;16.92;;;8.90;99.90;;;;;;5114143;28;20120;-68
2021/10/25 08:55:18;;;;;;;31.95;20.90;;;8.90;99.90;;;;;;5115158;28;20036;-68
2021/10/25 08:57:44;;;;;;;29.00;19.85;;;9.00;99.90;;;;;;5115344;27;20092;-68
2021/10/25 09:00:14;;;;;;;26.63;18.08;;;9.00;99.90;;;;;;5113873;28;20047;-68
2021/10/25 09:02:41;;;;;;;28.45;18.35;;;9.10;99.90;;;;;;5114599;28;20035;-68
2021/10/25 09:05:11;;;;;;;24.10;17.40;;;9.10;99.90;;;;;;5112988;28;20126;-68
2021/10/25 09:07:54;;;;;;;29.92;19.25;;;9.10;99.90;;;;;;5113732;28;20100;-68
2021/10/25 09:10:23;;;;;;;33.20;19.77;;;9.10;99.90;;;;;;5113092;28;20043;-68
2021/10/25 09:12:53;;;;;;;25.70;18.52;;;9.20;99.90;;;;;;5114835;28;20039;-68
2021/10/25 09:15:19;;;;;;;32.47;21.25;;;9.20;99.90;;;;;;5114542;28;20089;-68
2021/10/25 09:17:45;;;;;;;28.33;18.80;;;9.20;99.90;;;;;;5114671;28;20035;-68
2021/10/25 09:20:11;;;;;;;27.85;18.98;;;9.20;99.90;;;;;;5114246;28;20055;-68
2021/10/25 09:22:37;;;;;;;32.28;21.20;;;9.30;99.90;;;;;;5114500;28;20039;-68
2021/10/25 09:25:03;;;;;;;31.20;20.88;;;9.30;99.90;;;;;;5114706;28;20498;-68
2021/10/25 09:27:40;;;;;;;29.48;21.02;;;9.40;99.90;;;;;;5114340;28;20040;-68
2021/10/25 09:30:12;;;;;;;32.45;20.88;;;9.40;99.90;;;;;;5114014;28;20032;-68
2021/10/25 09:32:41;;;;;;;29.60;20.48;;;9.40;99.90;;;;;;5114614;28;20120;-68
2021/10/25 09:35:16;;;;;;;33.25;20.58;;;9.50;99.90;;;;;;5114346;28;20071;-68
2021/10/25 09:38:07;;;;;;;27.40;18.52;;;9.50;99.90;;;;;;5114328;28;20039;-68
2021/10/25 09:41:02;;;;;;;25.45;18.00;;;9.50;99.90;;;;;;5113916;28;20044;-68
2021/10/25 09:45:06;;;;;;;25.77;18.35;;;9.50;99.90;;;;;;5113737;28;20048;-68
2021/10/25 09:49:10;;;;;;;27.50;20.38;;;9.50;99.90;;;;;;5112348;28;20048;-68
2021/10/25 09:51:38;;;;;;;29.88;19.67;;;9.60;99.90;;;;;;5114112;28;20040;-68
2021/10/25 09:54:04;;;;;;;30.92;19.83;;;9.60;99.90;;;;;;5114295;28;20051;-68
2021/10/25 09:56:33;;;;;;;27.50;19.08;;;9.60;99.90;;;;;;5114222;28;20474;-68
2021/10/25 09:59:18;;;;;;;36.10;21.38;;;9.60;99.90;;;;;;5113896;28;20132;-68
2021/10/25 10:01:44;;;;;;;31.00;20.35;;;9.60;99.90;;;;;;5114467;28;20463;-68
2021/10/25 10:04:10;;;;;;;31.02;19.38;;;9.70;99.90;;;;;;5114146;28;20110;-68
2021/10/25 10:06:37;;;;;;;29.85;21.08;;;9.70;99.90;;;;;;5115022;28;20512;-68
2021/10/25 10:09:03;;;;;;;34.15;20.70;;;9.70;99.90;;;;;;5113505;28;20472;-69
2021/10/25 10:11:29;;;;;;;32.90;20.73;;;9.70;99.90;;;;;;5112767;28;20049;-69
2021/10/25 10:13:56;;;;;;;30.58;21.70;;;9.70;99.90;;;;;;5113216;28;20058;-68
2021/10/25 10:16:23;;;;;;;27.35;20.38;;;9.70;99.90;;;;;;5113818;28;20487;-68
2021/10/25 10:19:00;;;;;;;27.75;20.65;;;9.80;99.90;;;;;;5111886;28;20440;-69
2021/10/25 10:21:27;;;;;;;33.85;22.00;;;9.90;99.90;;;;;;5114276;28;20096;-69
2021/10/25 10:24:01;;;;;;;24.95;18.88;;;9.90;99.90;;;;;;5112263;28;20051;-69
2021/10/25 10:26:32;;;;;;;32.03;21.85;;;9.90;99.90;;;;;;5113434;28;20031;-68
2021/10/25 10:29:11;;;;;;;31.55;20.23;;;9.90;99.90;;;;;;5113215;28;20119;-69
2021/10/25 10:31:37;;;;;;;30.98;21.20;;;10.00;99.90;;;;;;5113820;28;20044;-69
2021/10/25 10:34:14;;;;;;;26.08;20.40;;;10.00;99.90;;;;;;5113563;28;20075;-68
2021/10/25 10:36:57;;;;;;;27.15;19.38;;;10.00;99.90;;;;;;5113661;28;20469;-69
2021/10/25 10:39:27;;;;;;;24.27;19.33;;;10.00;99.90;;;;;;5113682;28;20036;-69
2021/10/25 10:41:57;;;;;;;30.27;19.90;;;10.00;99.90;;;;;;5113392;28;20116;-68
2021/10/25 10:44:26;;;;;;;30.75;21.63;;;10.10;99.90;;;;;;5113534;28;20039;-68
2021/10/25 10:46:59;;;;;;;27.75;21.73;;;10.10;99.90;;;;;;5095228;28;20032;-68
2021/10/25 10:49:28;;;;;;;29.63;20.50;;;10.10;99.90;;;;;;5113143;28;20120;-68
2021/10/25 10:52:05;;;;;;;25.73;19.10;;;10.20;99.90;;;;;;5112096;28;20138;-69
2021/10/25 10:55:05;;;;;;;28.67;19.90;;;10.20;99.90;;;;;;5113498;28;20120;-69
2021/10/25 11:00:43;;;;;;;26.13;18.50;;;10.10;99.90;;;;;;5112133;28;20084;-68
2021/10/25 11:03:13;;;;;;;28.67;18.48;;;10.10;99.90;;;;;;5113282;28;20071;-69
2021/10/25 11:05:56;;;;;;;25.73;18.02;;;10.10;99.90;;;;;;5112328;28;20431;-69
2021/10/25 11:08:24;;;;;;;27.23;18.80;;;10.10;99.90;;;;;;5111972;28;20036;-70
2021/10/25 11:11:13;;;;;;;25.85;18.20;;;10.20;99.90;;;;;;5113124;28;20047;-69
2021/10/25 11:13:47;;;;;;;29.70;19.60;;;10.20;99.90;;;;;;5111986;28;20048;-69
2021/10/25 11:16:17;;;;;;;;;;;10.20;99.90;;;;;;5115365;28;20035;-69
2021/10/25 11:18:46;;;;;;;28.10;17.52;;;10.10;99.90;;;;;;5116364;28;19923;-69
2021/10/25 11:21:23;;;;;;;27.05;18.08;;;10.10;99.90;;;;;;5116767;28;20045;-69
2021/10/25 11:23:55;;;;;;;27.77;17.55;;;10.20;99.90;;;;;;5115480;28;20039;-68
2021/10/25 11:26:28;;;;;;;25.58;18.40;;;10.20;99.90;;;;;;5115762;28;20475;-69
2021/10/25 11:28:58;;;;;;;21.42;17.45;;;10.20;99.90;;;;;;5115556;28;20093;-69
2021/10/25 11:31:25;;;;;;;23.05;17.65;;;10.30;99.90;;;;;;5115675;28;20043;-69
2021/10/25 11:33:51;;;;;;;26.60;17.27;;;10.30;99.90;;;;;;5116716;28;20036;-69
2021/10/25 11:36:19;;;;;;;23.70;16.95;;;10.30;99.90;;;;;;5114977;28;20058;-69
2021/10/25 11:38:45;;;;;;;23.58;17.35;;;10.30;99.90;;;;;;5115756;28;20565;-69
2021/10/25 11:41:11;;;;;;;23.90;18.38;;;10.30;99.90;;;;;;5116253;28;20035;-69
2021/10/25 11:43:37;;;;;;;26.80;18.55;;;10.30;99.90;;;;;;5116376;28;20207;-69
2021/10/25 11:46:20;;;;;;;22.20;17.10;;;10.40;99.90;;;;;;5116322;28;20074;-68
2021/10/25 11:48:53;;;;;;;;;;;10.40;99.90;;;;;;5116729;28;20106;-69
2021/10/25 11:51:20;;;;;;;24.33;17.10;;;10.40;99.90;;;;;;5116258;28;19919;-69
2021/10/25 11:53:45;;;;;;;21.73;17.60;;;10.40;99.90;;;;;;5116094;27;20436;-69
2021/10/25 11:56:14;;;;;;;25.30;17.25;;;10.30;99.90;;;;;;5115977;28;20122;-68
2021/10/25 11:58:42;;;;;;;22.77;16.55;;;10.40;99.90;;;;;;5115892;28;20039;-68
2021/10/25 12:01:12;;;;;;;22.63;17.58;;;10.40;99.90;;;;;;5116094;28;20043;-69
2021/10/25 12:03:38;;;;;;;23.77;17.55;;;10.40;99.90;;;;;;5114777;28;20160;-69
2021/10/25 12:06:12;;;;;;;22.98;16.75;;;10.40;99.90;;;;;;5116069;28;20032;-69
2021/10/25 12:08:38;;;;;;;27.30;17.95;;;10.40;99.90;;;;;;5114522;28;20096;-69
2021/10/25 12:11:03;;;;;;;24.75;18.92;;;10.50;99.90;;;;;;5115817;28;20067;-69
2021/10/25 12:13:29;;;;;;;30.83;19.13;;;10.50;99.90;;;;;;5114652;28;20059;-68
2021/10/25 12:16:00;;;;;;;25.40;18.08;;;10.40;99.90;;;;;;5115736;28;20036;-69
2021/10/25 12:18:26;;;;;;;25.48;18.25;;;10.50;99.90;;;;;;5116055;28;20039;-69
2021/10/25 12:20:52;;;;;;;30.20;19.85;;;10.50;99.90;;;;;;5115540;28;20426;-69
2021/10/25 12:23:20;;;;;;;27.80;19.98;;;10.50;99.90;;;;;;5115434;28;20040;-69
2021/10/25 12:25:55;;;;;;;27.65;20.80;;;10.50;99.90;;;;;;5115930;28;20111;-68
2021/10/25 12:28:21;;;;;;;30.10;23.15;;;10.50;99.90;;;;;;5114378;28;20051;-69
2021/10/25 12:31:04;;;;;;;29.23;20.90;;;10.50;99.90;;;;;;5114364;28;20044;-69
2021/10/25 12:33:29;;;;;;;30.17;22.17;;;10.50;99.90;;;;;;5114442;28;20054;-68
2021/10/25 12:35:55;;;;;;;29.90;21.88;;;10.60;99.90;;;;;;5115787;28;20040;-69
2021/10/25 12:38:23;;;;;;;29.98;21.73;;;10.60;99.90;;;;;;5105765;28;20063;-69
2021/10/25 12:40:52;;;;;;;32.60;22.90;;;10.70;99.90;;;;;;5114085;28;20039;-68
2021/10/25 12:43:19;;;;;;;30.67;22.00;;;10.80;99.90;;;;;;5115662;28;20388;-69
2021/10/25 12:46:03;;;;;;;28.55;20.67;;;10.90;99.90;;;;;;5114955;28;20038;-69
2021/10/25 12:48:41;;;;;;;30.38;21.73;;;10.90;99.90;;;;;;5114725;28;20078;-69
2021/10/25 12:51:07;;;;;;;39.08;21.85;;;11.00;99.90;;;;;;5114992;28;20054;-68
2021/10/25 12:53:33;;;;;;;30.92;20.63;;;11.00;99.90;;;;;;5114815;28;20035;-69
2021/10/25 12:56:00;;;;;;;31.13;21.23;;;11.00;99.90;;;;;;5115064;28;20609;-69
2021/10/25 12:58:27;;;;;;;37.03;23.70;;;11.00;99.90;;;;;;5115210;28;20040;-69
2021/10/25 13:00:54;;;;;;;36.35;22.95;;;11.00;99.90;;;;;;5113699;28;20047;-69
2021/10/25 13:03:26;;;;;;;32.45;23.08;;;11.00;99.90;;;;;;5114766;28;20051;-69
2021/10/25 13:06:04;;;;;;;34.15;21.92;;;11.00;99.90;;;;;;5113747;28;20039;-69
2021/10/25 13:08:29;;;;;;;37.17;24.00;;;11.10;99.90;;;;;;5114734;28;20039;-70
2021/10/25 13:10:55;;;;;;;34.05;22.45;;;11.00;99.90;;;;;;5114574;28;20126;-69
2021/10/25 13:13:26;;;;;;;36.08;25.30;;;11.10;99.90;;;;;;5114660;27;20036;-69
2021/10/25 13:15:51;;;;;;;36.88;22.95;;;11.00;99.90;;;;;;5114153;28;20491;-69
2021/10/25 13:18:17;;;;;;;38.45;22.80;;;11.00;99.90;;;;;;5114340;28;20038;-69
2021/10/25 13:20:43;;;;;;;34.40;22.05;;;11.00;99.90;;;;;;5113197;28;20043;-69
2021/10/25 13:23:11;;;;;;;37.45;24.25;;;11.00;99.90;;;;;;5114597;28;20541;-69
2021/10/25 13:25:37;;;;;;;41.42;23.90;;;11.00;99.90;;;;;;5112918;28;20035;-69
2021/10/25 13:28:07;;;;;;;35.30;23.52;;;11.00;99.90;;;;;;5114844;28;20043;-69
2021/10/25 13:30:33;;;;;;;28.88;20.63;;;11.10;99.90;;;;;;5114316;28;20159;-69
2021/10/25 13:32:59;;;;;;;35.97;23.27;;;11.00;99.90;;;;;;5114211;28;20523;-69
2021/10/25 13:35:25;;;;;;;33.03;23.50;;;11.00;99.90;;;;;;5114781;28;20115;-69
2021/10/25 13:37:52;;;;;;;37.30;23.15;;;11.10;99.90;;;;;;5113950;28;20561;-69
2021/10/25 13:40:21;;;;;;;33.38;22.70;;;11.10;99.90;;;;;;5113459;28;20071;-70
2021/10/25 13:42:46;;;;;;;36.08;23.58;;;11.10;99.90;;;;;;5096997;28;20107;-68
2021/10/25 13:45:12;;;;;;;36.53;23.23;;;11.10;99.90;;;;;;5092693;28;20036;-69
2021/10/25 13:47:38;;;;;;;36.85;22.33;;;11.20;99.90;;;;;;5093796;28;20093;-69
2021/10/25 13:50:04;;;;;;;37.30;23.70;;;11.10;99.90;;;;;;5093275;28;20063;-69
2021/10/25 13:52:30;;;;;;;38.78;23.80;;;11.10;99.90;;;;;;5093652;28;20119;-69
2021/10/25 13:54:55;;;;;;;36.42;22.40;;;11.10;99.90;;;;;;5092386;28;20115;-69
2021/10/25 13:57:23;;;;;;;33.60;21.98;;;11.10;99.90;;;;;;5093408;28;20497;-69
2021/10/25 13:59:49;;;;;;;36.40;22.65;;;11.10;99.90;;;;;;5093465;28;20157;-69
2021/10/25 14:02:16;;;;;;;36.47;22.65;;;11.10;99.90;;;;;;5091988;28;20044;-69
2021/10/25 14:04:51;;;;;;;36.25;22.08;;;11.10;99.90;;;;;;5093484;28;20488;-69
2021/10/25 14:07:20;;;;;;;29.02;20.13;;;11.10;99.90;;;;;;5103381;28;20035;-70
2021/10/25 14:10:00;;;;;;;30.10;21.38;;;11.10;99.90;;;;;;5112266;28;20040;-69
2021/10/25 14:12:28;;;;;;;32.22;21.70;;;11.10;99.90;;;;;;5113975;28;20140;-69
2021/10/25 14:15:04;;;;;;;31.08;21.15;;;11.20;99.90;;;;;;5113878;28;20044;-69
2021/10/25 14:17:30;;;;;;;33.53;21.65;;;11.20;99.90;;;;;;5113738;28;20118;-69